createdAt,value
2019-04-20T00:02:14.378Z,16.98
2019-04-20T00:04:37.466Z,17.23
2019-04-20T00:07:04.007Z,17.32
2019-04-20T00:09:34.808Z,17.39
2019-04-20T00:12:06.888Z,17.52
2019-04-20T00:14:30.928Z,17.51
2019-04-20T00:16:54.726Z,17.45
2019-04-20T00:19:26.142Z,17.00
2019-04-20T00:21:58.593Z,16.41
2019-04-20T00:24:38.964Z,16.77
2019-04-20T00:27:34.975Z,17.15
2019-04-20T00:29:54.761Z,17.17
2019-04-20T00:32:15.537Z,17.48
2019-04-20T00:34:37.221Z,17.58
2019-04-20T00:37:00.379Z,17.53
2019-04-20T00:39:27.867Z,17.57
2019-04-20T00:42:00.308Z,17.57
2019-04-20T00:44:28.606Z,17.85
2019-04-20T00:47:04.753Z,17.62
2019-04-20T00:49:34.975Z,17.57
2019-04-20T00:52:13.154Z,16.73
2019-04-20T00:54:15.982Z,16.65
2019-04-20T00:56:43.391Z,15.48
2019-04-20T00:59:25.802Z,15.90
2019-04-20T01:02:00.278Z,16.21
2019-04-20T01:04:23.884Z,16.04
2019-04-20T01:06:58.971Z,15.60
2019-04-20T01:09:18.269Z,15.57
2019-04-20T01:11:47.874Z,15.58
2019-04-20T01:14:14.584Z,15.92
2019-04-20T01:16:46.997Z,16.21
2019-04-20T01:19:08.888Z,16.20
2019-04-20T01:21:35.523Z,16.47
2019-04-20T01:24:07.932Z,16.83
2019-04-20T01:26:31.414Z,16.89
2019-04-20T01:29:09.019Z,16.70
2019-04-20T01:31:35.545Z,16.58
2019-04-20T01:34:03.197Z,16.79
2019-04-20T01:36:43.049Z,16.92
2019-04-20T01:39:02.738Z,17.12
2019-04-20T01:41:18.332Z,17.09
2019-04-20T01:43:44.475Z,17.14
2019-04-20T01:46:15.748Z,17.25
2019-04-20T01:48:41.510Z,17.16
2019-04-20T01:51:16.462Z,17.54
2019-04-20T01:53:46.482Z,17.54
2019-04-20T01:56:18.352Z,17.48
2019-04-20T01:58:58.222Z,17.55
2019-04-20T02:01:23.040Z,17.87
2019-04-20T02:03:50.507Z,18.03
2019-04-20T02:06:22.749Z,17.93
2019-04-20T02:08:52.879Z,18.06
2019-04-20T02:11:21.954Z,18.36
2019-04-20T02:13:51.288Z,18.14
2019-04-20T02:16:22.631Z,18.10
2019-04-20T02:18:59.144Z,17.85
2019-04-20T02:21:25.832Z,18.00
2019-04-20T02:23:46.206Z,17.92
2019-04-20T02:26:05.135Z,18.14
2019-04-20T02:28:58.591Z,18.05
2019-04-20T02:34:04.030Z,18.05
2019-04-20T02:36:51.210Z,17.59
2019-04-20T02:46:31.601Z,18.07
2019-04-20T02:49:12.921Z,18.12
2019-04-20T02:51:33.801Z,17.99
2019-04-20T02:54:14.092Z,17.82
2019-04-20T02:56:31.942Z,17.34
2019-04-20T02:59:14.770Z,18.02
2019-04-20T03:01:26.707Z,18.07
2019-04-20T03:03:39.071Z,18.31
2019-04-20T03:06:13.355Z,18.22
2019-04-20T03:08:51.593Z,17.83
2019-04-20T03:11:21.229Z,18.10
2019-04-20T03:13:44.061Z,18.03
2019-04-20T03:16:12.407Z,17.78
2019-04-20T03:18:39.912Z,17.82
2019-04-20T03:21:12.893Z,17.61
2019-04-20T03:23:42.830Z,17.38
2019-04-20T03:26:12.807Z,17.42
2019-04-20T03:28:42.945Z,17.02
2019-04-20T03:31:59.569Z,17.06
2019-04-20T03:36:44.666Z,17.81
2019-04-20T03:38:57.284Z,18.01
2019-04-20T03:41:18.297Z,16.80
2019-04-20T03:43:35.375Z,15.19
2019-04-20T03:46:07.511Z,14.87
2019-04-20T03:48:48.377Z,15.72
2019-04-20T03:51:26.837Z,15.92
2019-04-20T03:54:05.164Z,16.82
2019-04-20T03:56:35.194Z,16.69
2019-04-20T03:59:16.083Z,16.78
2019-04-20T04:04:25.711Z,16.51
2019-04-20T04:06:39.312Z,16.24
2019-04-20T04:09:14.734Z,15.47
2019-04-20T04:11:46.117Z,15.42
2019-04-20T04:13:56.673Z,15.38
2019-04-20T04:16:27.807Z,14.65
2019-04-20T04:19:01.438Z,14.93
2019-04-20T04:21:35.511Z,15.11
2019-04-20T04:24:02.453Z,14.88
2019-04-20T04:26:32.289Z,15.63
2019-04-20T04:29:08.311Z,16.17
2019-04-20T04:31:34.993Z,17.85
2019-04-20T04:33:59.339Z,19.78
2019-04-20T04:36:21.170Z,20.93
2019-04-20T04:39:05.438Z,20.66
2019-04-20T04:41:36.685Z,18.27
2019-04-20T04:43:51.093Z,16.72
2019-04-20T04:46:01.716Z,17.11
2019-04-20T04:48:34.659Z,16.32
2019-04-20T04:51:02.729Z,16.59
2019-04-20T04:53:38.865Z,17.05
2019-04-20T04:55:58.570Z,17.36
2019-04-20T04:58:21.637Z,17.40
2019-04-20T05:00:49.353Z,16.34
2019-04-20T05:03:35.106Z,16.51
2019-04-20T05:06:06.606Z,16.80
2019-04-20T05:08:24.051Z,17.41
2019-04-20T05:10:43.650Z,17.34
2019-04-20T05:13:11.308Z,17.24
2019-04-20T05:15:57.337Z,18.07
2019-04-20T05:18:34.418Z,17.70
2019-04-20T05:21:03.192Z,17.05
2019-04-20T05:23:32.035Z,17.77
2019-04-20T05:26:22.671Z,17.41
2019-04-20T05:28:48.339Z,17.23
2019-04-20T05:31:11.121Z,16.48
2019-04-20T05:34:03.927Z,17.50
2019-04-20T05:36:24.742Z,16.86
2019-04-20T05:38:59.038Z,17.08
2019-04-20T05:41:16.651Z,16.99
2019-04-20T05:43:56.321Z,16.59
2019-04-20T05:46:26.292Z,16.83
2019-04-20T05:48:57.875Z,15.87
2019-04-20T05:51:29.527Z,16.18
2019-04-20T05:53:54.750Z,16.32
2019-04-20T05:56:17.319Z,17.21
2019-04-20T05:58:49.585Z,17.43
2019-04-20T06:01:22.862Z,17.46
2019-04-20T06:03:45.088Z,16.58
2019-04-20T06:06:15.098Z,15.98
2019-04-20T06:08:50.453Z,17.70
2019-04-20T06:11:13.383Z,18.73
2019-04-20T06:13:37.908Z,18.98
2019-04-20T06:16:33.276Z,18.95
2019-04-20T06:19:06.342Z,20.34
2019-04-20T06:21:53.056Z,20.99
2019-04-20T06:24:02.627Z,22.67
2019-04-20T06:26:56.570Z,22.97
2019-04-20T06:29:16.328Z,22.45
2019-04-20T06:31:45.934Z,22.49
2019-04-20T06:36:57.299Z,22.49
2019-04-20T06:44:24.169Z,19.39
2019-04-20T06:46:52.451Z,19.83
2019-04-20T06:49:24.437Z,20.67
2019-04-20T06:54:39.447Z,22.11
2019-04-20T06:57:07.298Z,21.36
2019-04-20T06:59:40.786Z,22.03
2019-04-20T07:02:11.147Z,20.93
2019-04-20T07:07:03.714Z,20.81
2019-04-20T07:09:42.263Z,19.41
2019-04-20T07:11:50.474Z,20.00
2019-04-20T07:14:08.209Z,20.82
2019-04-20T07:17:09.650Z,21.55
2019-04-20T07:19:37.223Z,22.22
2019-04-20T07:22:23.122Z,22.02
2019-04-20T07:24:43.120Z,21.95
2019-04-20T07:27:06.122Z,20.39
2019-04-20T07:29:43.179Z,21.65
2019-04-20T07:31:57.698Z,20.57
2019-04-20T07:34:26.160Z,22.37
2019-04-20T07:37:17.743Z,21.51
2019-04-20T07:39:32.943Z,21.79
2019-04-20T07:42:00.613Z,21.50
2019-04-20T07:48:22.288Z,22.95
2019-04-20T07:50:40.920Z,22.98
2019-04-20T07:53:13.589Z,21.92
2019-04-20T07:59:25.332Z,21.27
2019-04-20T08:09:07.166Z,23.25
2019-04-20T08:11:48.768Z,23.77
2019-04-20T08:14:22.743Z,23.69
2019-04-20T08:17:09.147Z,22.95
2019-04-20T08:29:54.303Z,21.85
2019-04-20T08:32:32.455Z,22.13
2019-04-20T08:35:05.615Z,23.27
2019-04-20T08:37:28.022Z,24.34
2019-04-20T08:40:02.912Z,23.10
2019-04-20T08:42:31.290Z,24.57
2019-04-20T08:47:35.112Z,22.41
2019-04-20T08:50:19.297Z,23.01
2019-04-20T08:53:06.874Z,21.62
2019-04-20T08:55:05.328Z,22.53
2019-04-20T08:57:17.890Z,21.89
2019-04-20T08:59:48.247Z,20.03
2019-04-20T09:02:15.722Z,19.12
2019-04-20T09:04:47.854Z,19.75
2019-04-20T09:07:15.260Z,20.93
2019-04-20T09:10:00.781Z,20.40
2019-04-20T09:12:23.238Z,19.98
2019-04-20T09:14:36.746Z,21.36
2019-04-20T09:17:07.957Z,21.37
2019-04-20T09:19:39.914Z,21.89
2019-04-20T09:22:28.022Z,22.09
2019-04-20T09:25:13.248Z,21.03
2019-04-20T09:27:26.907Z,21.22
2019-04-20T09:30:00.212Z,22.20
2019-04-20T09:32:35.964Z,21.81
2019-04-20T09:35:07.815Z,21.63
2019-04-20T09:37:39.469Z,21.75
2019-04-20T09:40:21.545Z,22.51
2019-04-20T09:42:34.766Z,23.71
2019-04-20T09:45:04.136Z,23.72
2019-04-20T09:47:37.044Z,23.42
2019-04-20T09:50:08.965Z,24.34
2019-04-20T09:52:45.735Z,24.06
2019-04-20T09:55:09.229Z,23.86
2019-04-20T09:57:38.084Z,23.37
2019-04-20T10:00:05.403Z,22.20
2019-04-20T10:02:24.000Z,23.24
2019-04-20T10:04:47.217Z,22.90
2019-04-20T10:07:17.737Z,20.35
2019-04-20T10:09:44.976Z,20.37
2019-04-20T10:12:11.168Z,19.29
2019-04-20T10:14:38.486Z,18.68
2019-04-20T10:17:05.715Z,20.87
2019-04-20T10:19:34.667Z,19.99
2019-04-20T10:22:00.409Z,20.53
2019-04-20T10:24:26.880Z,21.86
2019-04-20T10:26:54.493Z,20.77
2019-04-20T10:29:21.609Z,19.50
2019-04-20T10:31:54.579Z,20.08
2019-04-20T10:34:17.648Z,20.69
2019-04-20T10:36:46.216Z,20.97
2019-04-20T10:39:12.878Z,21.83
2019-04-20T10:41:47.707Z,23.22
2019-04-20T10:44:07.292Z,24.15
2019-04-20T10:46:33.490Z,21.92
2019-04-20T10:49:03.816Z,21.57
2019-04-20T10:51:29.244Z,22.30
2019-04-20T10:53:56.136Z,22.36
2019-04-20T10:56:23.258Z,20.85
2019-04-20T10:58:49.704Z,21.23
2019-04-20T11:01:16.048Z,20.95
2019-04-20T11:03:42.723Z,22.22
2019-04-20T11:06:09.116Z,23.23
2019-04-20T11:08:35.373Z,21.45
2019-04-20T11:11:10.893Z,23.67
2019-04-20T11:13:29.707Z,23.18
2019-04-20T11:15:56.670Z,22.89
2019-04-20T11:18:23.115Z,22.87
2019-04-20T11:20:49.391Z,22.30
2019-04-20T11:23:16.134Z,21.67
2019-04-20T11:25:42.345Z,22.14
2019-04-20T11:28:08.538Z,24.42
2019-04-20T11:30:36.221Z,24.68
2019-04-20T11:33:02.706Z,23.23
2019-04-20T11:35:34.477Z,23.47
2019-04-20T11:37:57.499Z,23.88
2019-04-20T11:40:23.864Z,20.99
2019-04-20T11:42:50.056Z,21.80
2019-04-20T11:45:16.438Z,22.19
2019-04-20T11:47:43.417Z,22.64
2019-04-20T11:50:11.381Z,23.45
2019-04-20T11:52:41.367Z,23.91
2019-04-20T11:55:08.480Z,25.33
2019-04-20T11:57:35.400Z,23.44
2019-04-20T12:00:03.579Z,22.71
2019-04-20T12:02:44.303Z,21.24
2019-04-20T12:05:27.334Z,21.92
2019-04-20T12:07:49.203Z,22.30
2019-04-20T12:10:22.201Z,23.94
2019-04-20T12:12:49.391Z,25.39
2019-04-20T12:15:14.752Z,24.32
2019-04-20T12:17:41.791Z,24.65
2019-04-20T12:20:08.274Z,25.18
2019-04-20T12:22:34.587Z,24.53
2019-04-20T12:25:00.733Z,23.28
2019-04-20T12:27:27.030Z,23.58
2019-04-20T12:29:54.013Z,25.08
2019-04-20T12:32:21.722Z,25.63
2019-04-20T12:34:49.500Z,24.60
2019-04-20T12:37:15.817Z,23.93
2019-04-20T12:39:42.888Z,24.93
2019-04-20T12:42:10.078Z,24.87
2019-04-20T12:44:37.669Z,23.91
2019-04-20T12:47:04.081Z,22.68
2019-04-20T12:49:31.635Z,22.47
2019-04-20T12:52:01.497Z,22.12
2019-04-20T12:54:26.910Z,22.05
2019-04-20T12:56:53.244Z,22.12
2019-04-20T12:59:19.434Z,21.76
2019-04-20T13:01:47.005Z,21.36
2019-04-20T13:04:14.403Z,21.02
2019-04-20T13:06:40.930Z,21.06
2019-04-20T13:09:10.731Z,21.48
2019-04-20T13:11:52.709Z,22.61
2019-04-20T13:14:48.538Z,24.74
2019-04-20T13:17:14.989Z,24.24
2019-04-20T13:19:41.534Z,23.73
2019-04-20T13:22:08.082Z,23.33
2019-04-20T13:24:34.655Z,22.26
2019-04-20T13:27:01.141Z,23.13
2019-04-20T13:29:27.406Z,23.37
2019-04-20T13:31:56.267Z,23.67
2019-04-20T13:34:22.241Z,23.65
2019-04-20T13:36:48.652Z,23.26
2019-04-20T13:39:14.915Z,24.65
2019-04-20T13:41:42.113Z,25.08
2019-04-20T13:44:08.507Z,23.88
2019-04-20T13:46:34.755Z,23.59
2019-04-20T13:49:00.944Z,23.93
2019-04-20T13:51:28.696Z,21.69
2019-04-20T13:53:55.312Z,22.31
2019-04-20T13:56:23.801Z,22.15
2019-04-20T13:59:03.985Z,22.29
2019-04-20T14:01:34.808Z,22.75
2019-04-20T14:04:14.957Z,23.88
2019-04-20T14:06:41.545Z,23.42
2019-04-20T14:09:07.743Z,22.99
2019-04-20T14:11:33.989Z,23.89
2019-04-20T14:14:03.178Z,23.70
2019-04-20T14:16:29.356Z,25.41
2019-04-20T14:18:55.640Z,25.62
2019-04-20T14:21:21.813Z,23.51
2019-04-20T14:23:48.611Z,23.24
2019-04-20T14:26:14.983Z,23.50
2019-04-20T14:28:41.155Z,23.75
2019-04-20T14:31:07.842Z,24.15
2019-04-20T14:33:34.869Z,23.11
2019-04-20T14:36:01.306Z,23.09
2019-04-20T14:38:28.499Z,23.33
2019-04-20T14:40:54.984Z,22.02
2019-04-20T14:43:22.322Z,21.85
2019-04-20T14:45:48.724Z,21.49
2019-04-20T14:48:14.924Z,21.80
2019-04-20T14:50:41.503Z,22.23
2019-04-20T14:53:07.658Z,21.53
2019-04-20T14:55:33.878Z,22.25
2019-04-20T14:58:01.966Z,21.92
2019-04-20T15:00:58.466Z,21.35
2019-04-20T15:03:26.683Z,21.85
2019-04-20T15:05:57.653Z,21.70
2019-04-20T15:08:24.883Z,22.17
2019-04-20T15:10:52.155Z,22.23
2019-04-20T15:13:18.586Z,22.31
2019-04-20T15:15:44.786Z,22.37
2019-04-20T15:18:13.443Z,21.90
2019-04-20T15:20:41.736Z,21.70
2019-04-20T15:23:09.875Z,21.96
2019-04-20T15:25:36.760Z,22.01
2019-04-20T15:28:03.189Z,21.96
2019-04-20T15:30:29.931Z,21.82
2019-04-20T15:32:56.893Z,21.49
2019-04-20T15:35:24.653Z,22.03
2019-04-20T15:37:51.271Z,22.07
2019-04-20T15:40:17.552Z,21.09
2019-04-20T15:42:56.188Z,21.42
2019-04-20T15:45:13.557Z,20.89
2019-04-20T15:47:40.259Z,20.57
2019-04-20T15:50:07.839Z,20.89
2019-04-20T15:52:37.582Z,21.99
2019-04-20T15:55:10.222Z,21.88
2019-04-20T15:57:33.178Z,21.56
2019-04-20T16:00:00.349Z,21.47
2019-04-20T16:02:29.450Z,21.08
2019-04-20T16:05:14.554Z,21.55
2019-04-20T16:07:49.876Z,21.96
2019-04-20T16:10:09.508Z,22.27
2019-04-20T16:12:35.949Z,21.75
2019-04-20T16:15:03.945Z,21.83
2019-04-20T16:17:36.718Z,21.61
2019-04-20T16:20:05.763Z,21.25
2019-04-20T16:22:28.904Z,20.86
2019-04-20T16:25:03.551Z,21.45
2019-04-20T16:27:34.233Z,21.67
2019-04-20T16:30:02.046Z,21.57
2019-04-20T16:32:30.087Z,21.82
2019-04-20T16:34:56.722Z,21.09
2019-04-20T16:37:24.459Z,20.97
2019-04-20T16:39:50.825Z,21.08
2019-04-20T16:42:18.243Z,21.40
2019-04-20T16:44:45.245Z,21.41
2019-04-20T16:47:12.308Z,20.82
2019-04-20T16:49:39.067Z,20.79
2019-04-20T16:52:05.623Z,20.47
2019-04-20T16:54:32.134Z,20.52
2019-04-20T16:56:58.494Z,20.47
2019-04-20T16:59:24.840Z,20.53
2019-04-20T17:01:51.191Z,20.40
2019-04-20T17:04:22.238Z,20.21
2019-04-20T17:07:03.731Z,19.72
2019-04-20T17:09:29.991Z,19.61
2019-04-20T17:11:57.394Z,19.65
2019-04-20T17:14:25.575Z,19.43
2019-04-20T17:16:52.042Z,19.53
2019-04-20T17:19:19.696Z,19.50
2019-04-20T17:21:46.479Z,19.34
2019-04-20T17:24:13.482Z,19.31
2019-04-20T17:26:43.246Z,19.14
2019-04-20T17:29:12.182Z,19.08
2019-04-20T17:31:47.363Z,19.02
2019-04-20T17:34:31.259Z,18.93
2019-04-20T17:36:42.311Z,18.98
2019-04-20T17:39:11.992Z,18.70
2019-04-20T17:41:56.291Z,18.70
2019-04-20T17:44:20.920Z,18.75
2019-04-20T17:46:46.476Z,18.22
2019-04-20T17:49:15.863Z,18.46
2019-04-20T17:51:53.250Z,18.55
2019-04-20T17:54:12.390Z,18.62
2019-04-20T17:56:44.387Z,18.31
2019-04-20T17:59:12.359Z,18.65
2019-04-20T18:01:55.509Z,18.74
2019-04-20T18:04:44.254Z,18.74
2019-04-20T18:06:51.667Z,18.53
2019-04-20T18:09:34.517Z,18.58
2019-04-20T18:11:42.673Z,18.20
2019-04-20T18:14:24.162Z,18.19
2019-04-20T18:16:56.307Z,18.30
2019-04-20T18:19:13.809Z,18.19
2019-04-20T18:21:42.343Z,18.40
2019-04-20T18:24:14.167Z,18.44
2019-04-20T18:26:52.083Z,18.50
2019-04-20T18:29:26.078Z,18.64
2019-04-20T18:31:39.606Z,18.71
2019-04-20T18:34:13.156Z,18.88
2019-04-20T18:36:39.936Z,18.85
2019-04-20T18:39:09.933Z,18.69
2019-04-20T18:41:41.591Z,18.55
2019-04-20T18:44:02.639Z,18.42
2019-04-20T18:46:54.566Z,18.30
2019-04-20T18:49:13.628Z,18.20
2019-04-20T18:51:25.953Z,18.08
2019-04-20T18:53:53.914Z,18.09
2019-04-20T18:56:25.604Z,18.00
2019-04-20T18:58:49.170Z,17.85
2019-04-20T19:01:16.961Z,17.80
2019-04-20T19:03:45.549Z,17.78
2019-04-20T19:06:12.455Z,17.55
2019-04-20T19:08:44.843Z,17.06
2019-04-20T19:11:11.449Z,17.12
2019-04-20T19:13:44.648Z,17.16
2019-04-20T19:16:35.562Z,17.31
2019-04-20T19:19:20.131Z,17.23
2019-04-20T19:21:37.417Z,17.23
2019-04-20T19:24:09.246Z,17.21
2019-04-20T19:26:32.202Z,17.25
2019-04-20T19:29:11.934Z,17.19
2019-04-20T19:31:42.606Z,17.19
2019-04-20T19:34:11.782Z,17.32
2019-04-20T19:36:30.715Z,17.30
2019-04-20T19:39:06.024Z,17.29
2019-04-20T19:41:32.026Z,17.23
2019-04-20T19:44:02.448Z,17.05
2019-04-20T19:46:49.298Z,17.02
2019-04-20T19:48:53.996Z,17.00
2019-04-20T19:51:34.024Z,16.91
2019-04-20T19:54:03.674Z,16.76
2019-04-20T19:56:28.233Z,16.75
2019-04-20T19:58:53.686Z,16.76
2019-04-20T20:01:05.331Z,16.63
2019-04-20T20:03:33.351Z,16.62
2019-04-20T20:06:01.406Z,16.46
2019-04-20T20:08:32.695Z,16.26
2019-04-20T20:10:59.221Z,16.43
2019-04-20T20:13:31.680Z,16.38
2019-04-20T20:15:57.692Z,16.15
2019-04-20T20:18:35.587Z,16.38
2019-04-20T20:21:04.710Z,16.52
2019-04-20T20:23:16.546Z,16.28
2019-04-20T20:25:46.438Z,15.93
2019-04-20T20:28:20.258Z,15.97
2019-04-20T20:30:53.804Z,16.07
2019-04-20T20:33:26.708Z,16.08
2019-04-20T20:35:45.790Z,15.85
2019-04-20T20:38:14.857Z,15.88
2019-04-20T20:40:37.978Z,15.93
2019-04-20T20:43:11.113Z,15.86
2019-04-20T20:45:36.140Z,15.80
2019-04-20T20:48:17.738Z,15.89
2019-04-20T20:50:42.745Z,15.34
2019-04-20T20:53:07.680Z,15.82
2019-04-20T20:55:31.797Z,16.02
2019-04-20T20:58:00.622Z,15.72
2019-04-20T21:00:33.205Z,15.75
2019-04-20T21:02:52.917Z,15.72
2019-04-20T21:05:13.655Z,15.78
2019-04-20T21:07:40.532Z,15.78
2019-04-20T21:10:08.327Z,15.83
2019-04-20T21:12:36.385Z,15.77
2019-04-20T21:15:13.435Z,15.58
2019-04-20T21:17:46.440Z,15.71
2019-04-20T21:20:20.182Z,15.77
2019-04-20T21:22:57.065Z,15.56
2019-04-20T21:25:11.103Z,15.64
2019-04-20T21:27:37.271Z,15.65
2019-04-20T21:30:05.681Z,15.33
2019-04-20T21:32:39.628Z,15.13
2019-04-20T21:35:06.553Z,15.54
2019-04-20T21:37:29.011Z,15.52
2019-04-20T21:39:59.699Z,15.47
2019-04-20T21:42:26.799Z,15.25
2019-04-20T21:44:57.266Z,15.21
2019-04-20T21:47:25.524Z,15.39
2019-04-20T21:49:57.444Z,15.42
2019-04-20T21:52:24.935Z,15.63
2019-04-20T21:54:45.598Z,15.82
2019-04-20T21:57:14.315Z,15.78
2019-04-20T21:59:45.045Z,15.87
2019-04-20T22:02:15.059Z,15.92
2019-04-20T22:04:37.643Z,15.50
2019-04-20T22:07:04.659Z,15.85
2019-04-20T22:09:38.454Z,15.13
2019-04-20T22:12:00.186Z,15.49
2019-04-20T22:14:30.034Z,15.47
2019-04-20T22:16:56.858Z,15.66
2019-04-20T22:19:36.186Z,15.32
2019-04-20T22:22:02.527Z,15.41
2019-04-20T22:24:33.083Z,15.49
2019-04-20T22:26:58.981Z,15.31
2019-04-20T22:29:16.211Z,15.39
2019-04-20T22:31:46.108Z,15.55
2019-04-20T22:34:16.887Z,15.45
2019-04-20T22:36:44.801Z,15.47
2019-04-20T22:39:15.661Z,15.40
2019-04-20T22:41:50.791Z,15.44
2019-04-20T22:44:17.046Z,15.32
2019-04-20T22:46:43.701Z,15.43
2019-04-20T22:49:28.185Z,15.47
2019-04-20T22:51:49.577Z,15.42
2019-04-20T22:54:21.770Z,15.37
2019-04-20T22:56:47.090Z,15.16
2019-04-20T22:59:10.987Z,14.64
2019-04-20T23:01:37.736Z,14.56
2019-04-20T23:03:59.087Z,14.73
2019-04-20T23:06:33.372Z,14.71
2019-04-20T23:08:59.364Z,14.78
2019-04-20T23:11:26.978Z,14.75
2019-04-20T23:13:51.674Z,14.72
2019-04-20T23:16:18.061Z,14.72
2019-04-20T23:18:44.484Z,14.58
2019-04-20T23:21:13.796Z,14.61
2019-04-20T23:23:39.512Z,14.55
2019-04-20T23:26:07.158Z,14.56
2019-04-20T23:28:35.457Z,14.48
2019-04-20T23:31:08.341Z,14.55
2019-04-20T23:33:29.995Z,14.43
2019-04-20T23:35:59.150Z,14.53
2019-04-20T23:38:24.849Z,14.62
2019-04-20T23:40:52.133Z,14.64
2019-04-20T23:43:28.961Z,14.40
2019-04-20T23:46:17.225Z,14.60
2019-04-20T23:48:50.080Z,14.74
2019-04-20T23:51:39.080Z,14.76
2019-04-20T23:53:55.321Z,14.72
2019-04-20T23:56:17.000Z,14.79
2019-04-20T23:58:46.426Z,14.87
